Atlantic Elm — 9HA3054 — position and weather

sailwx.info

Track history (hours):
 
Tides and Currents Weather Stations Pressure Air Temp Water Temp Dewpoint Dewpoint Depression Visibility Wind Speed Wind Dir Waves Ship Positions

Atlantic Elm

Last reported at 2016-Sep-21 19:14 UTC. Time now 2016-Sep-28 23:57 UTC.
Position S 32°30' W 071°48'.

Length 190 m; draft 6.6 m.

Type: Ship (hazmat cat A). MMSI: 229081000.

Date/timePositionNaut miles runAvg speedWind from/ knotsBaromVisibWave heightAir tempDewpointWater temp
2016-Sep-21 19:14S 32°30' W 071°48'22 0.4
2016-Sep-19 16:34S 32°45' W 071°29'4 2.2
2016-Sep-19 14:33S 32°45' W 071°35'1 0.9
2016-Sep-19 13:31S 32°45' W 071°36'2 2.0
2016-Sep-19 12:33S 32°45' W 071°33'9 8.6
2016-Sep-19 11:33S 32°45' W 071°44'9 1.2
2016-Sep-19 03:33S 32°46' W 071°55'1 1.4
2016-Sep-19 02:33S 32°46' W 071°56'5 0.7
2016-Sep-18 19:33S 32°48' W 071°51'8 1.9
2016-Sep-18 15:33S 32°51' W 071°59'2 1.6
2016-Sep-18 14:33S 32°51' W 072°01'  
Track history (hours):
 
Tides and Currents Weather Stations Pressure Air Temp Water Temp Dewpoint Dewpoint Depression Visibility Wind Speed Wind Dir Waves Ship Positions

Atlantic Elm

Last reported at 2016-Sep-21 19:14 UTC. Time now 2016-Sep-28 23:57 UTC.
Position S 32°30' W 071°48'.

Length 190 m; draft 6.6 m.

Type: Ship (hazmat cat A). MMSI: 229081000.

Date/timePositionNaut miles runAvg speedWind from/ knotsBaromVisibWave heightAir tempDewpointWater temp
2016-Sep-21 19:14S 32°30' W 071°48'22 0.4
2016-Sep-19 16:34S 32°45' W 071°29'4 2.2
2016-Sep-19 14:33S 32°45' W 071°35'1 0.9
2016-Sep-19 13:31S 32°45' W 071°36'2 2.0
2016-Sep-19 12:33S 32°45' W 071°33'9 8.6
2016-Sep-19 11:33S 32°45' W 071°44'9 1.2
2016-Sep-19 03:33S 32°46' W 071°55'1 1.4
2016-Sep-19 02:33S 32°46' W 071°56'5 0.7
2016-Sep-18 19:33S 32°48' W 071°51'8 1.9
2016-Sep-18 15:33S 32°51' W 071°59'2 1.6
2016-Sep-18 14:33S 32°51' W 072°01'  

Dump ship's entire track history